<<    Dezember 2009    >>
Datum    Temp.       Tempmin      Tempmax    Taup.       Taup.min      Taup.max    Feuchte    Feuchtemin    Feuchtemax    Druck    Druckmin    Druckmax    Regen    Wind    Benmax  
  01.12.2009  5,6    2,1    00:00    8,1    12:31  4,1    1,2    00:00    5,1    11:48  90,0    77    12:38    96    01:53  1009,0    1003    02:05    1013    17:20  0,0  0,4  5,4  
  02.12.2009  7,0    5,7    00:09    8,9    12:56  2,7    -1,0    13:58    5,7    22:02  75,0    51    13:13    93    22:02  1009,0    1004    23:50    1013    00:20  1,8  4,4  18,0  
  03.12.2009  9,4    6,5    23:58    13,6    13:11  5,7    4,2    23:59    7,5    19:43  78,4    56    13:18    92    19:43  1001,6    999    18:34    1004    00:00  0,9  4,4  18,0  
  04.12.2009  5,1    1,9    06:24    9,0    12:23  1,4    -0,7    13:08    4,0    00:00  77,9    52    12:24    91    05:40  1008,5    1002    00:00    1012    18:34  0,9  2,0  10,8  
  05.12.2009  6,2    3,8    08:49    8,8    23:51  3,9    0,3    00:49    8,5    23:51  85,4    74    03:00    98    23:59  1008,9    1007    08:04    1012    00:00  7,6  4,9  16,2  
  06.12.2009  10,4    7,0    23:52    12,5    15:16  8,2    5,9    23:52    10,4    18:42  87,2    72    14:16    98    00:00  1005,9    1002    15:34    1010    23:19  3,6  3,5  14,4  
  07.12.2009  7,3    4,5    05:49    11,7    12:30  4,6    3,0    18:07    6,9    23:59  83,6    62    12:37    97    05:55  1009,9    1004    23:35    1013    07:04  0,0  3,7  18,0  
  08.12.2009  7,6    6,7    07:47    8,7    14:41  6,3    5,1    05:47    8,3    04:20  91,6    80    12:01    98    03:23  1010,9    1003    02:03    1020    23:47  1,8  2,4  23,4  
  09.12.2009  6,9    4,0    03:00    9,6    12:06  5,9    3,7    03:00    8,1    23:30  93,6    72    12:03    98    23:59  1022,7    1019    01:18    1025    17:33  2,0  2,6  10,8  
  10.12.2009  9,3    8,0    18:31    11,1    10:34  8,0    5,6    15:31    10,2    06:55  91,8    74    13:13    98    00:00  1021,6    1019    05:48    1024    19:03  8,3  5,7  21,6  
  11.12.2009  7,1    3,3    23:59    8,5    03:00  5,5    1,2    23:57    8,0    04:21  89,4    77    14:47    98    06:11  1025,9    1023    03:03    1028    17:03  1,8  4,6  16,2  
  12.12.2009  4,0    2,4    01:00    5,5    12:25  1,6    -0,5    15:35    3,2    04:12  84,5    69    15:35    96    01:24  1026,8    1025    15:02    1029    03:48  0,9  2,4  12,6  
  13.12.2009  2,5    1,0    23:59    5,1    13:17  -2,5    -7,7    23:59    0,8    02:29  70,4    52    23:57    90    02:29  1024,0    1023    04:47    1026    00:00  0,0  3,7  12,6  
  14.12.2009  -0,1    -3,2    18:54    2,0    13:33  -6,8    -8,2    00:40    -4,5    21:21  61,0    51    00:07    80    20:55  1022,3    1021    12:34    1025    01:32  0,0  1,2  9,0  
  15.12.2009  -1,2    -6,1    07:52    4,2    13:11  -6,8    -8,0    02:31    -3,7    10:17  66,9    46    13:13    89    08:47  1019,4    1017    17:17    1021    00:00  0,0  1,2  9,0  
  16.12.2009  -0,6    -2,9    21:30    3,9    13:10  -6,0    -8,3    13:52    -3,5    09:54  67,5    45    13:16    79    08:46  1013,0    1009    19:14    1017    00:00  0,0  0,9  7,2  
  17.12.2009  -0,9    -2,8    23:57    2,4    13:05  -5,9    -8,7    23:26    -4,0    11:43  69,4    57    13:08    85    08:57  1008,5    1007    08:01    1011    22:01  0,0  2,7  12,6  
  18.12.2009  -3,2    -6,3    23:59    0,8    12:35  -7,4    -12,4    23:59    -4,3    15:09  72,9    59    17:51    94    22:24  1009,8    1005    22:31    1012    02:46  0,0  3,1  18,0  
  19.12.2009  -11,0    -14,0    08:45    -6,1    13:10  -17,1    -19,8    19:09    -11,8    00:32  60,9    46    13:43    68    02:23  1010,1    1007    00:00    1013    11:01  0,0  2,2  14,4  
  20.12.2009  -5,9    -12,6    00:19    0,3    18:27  -9,7    -19,1    00:19    0,0    18:27  75,4    58    00:00    98    17:34  1001,1    995    16:16    1009    00:00  0,0  4,0  18,0  
  21.12.2009  -1,7    -4,8    09:00    2,3    23:11  -4,8    -8,4    08:56    0,4    23:11  79,9    61    12:03    90    23:59  998,9    990    22:47    1004    07:46  0,0  3,1  21,6  
  22.12.2009  2,2    0,9    23:59    3,3    15:32  1,3    0,2    23:59    2,7    11:07  94,2    88    15:49    98    04:46  988,6    984    05:44    993    23:59  11,3  1,3  9,0  
  23.12.2009  0,5    -3,6    07:14    4,3    13:10  -1,3    -3,9    07:14    1,6    10:43  88,7    58    13:32    98    02:31  997,1    991    01:00    1000    15:45  0,0  1,8  16,2  
  24.12.2009  2,8    -0,1    05:00    4,8    13:45  1,0    -0,7    05:00    3,3    23:59  88,5    76    13:55    98    03:58  992,9    982    23:15    998    00:00  0,0  1,7  12,6  
  25.12.2009  4,6    2,8    09:12    6,3    07:21  2,7    -1,1    23:54    6,0    07:21  88,0    72    23:09    98    00:56  992,6    981    01:01    1008    23:59  7,4  5,6  23,4  
  26.12.2009  3,7    0,8    02:52    9,5    13:15  0,2    -1,1    00:00    1,6    10:54  78,9    54    13:17    91    05:06  1007,5    1006    23:59    1009    10:44  0,0  3,3  12,6  
  27.12.2009  3,4    1,3    01:30    5,1    21:40  0,3    -2,1    06:36    3,4    20:52  80,3    71    06:55    93    20:21  1003,3    1001    14:14    1007    01:59  0,9  3,4  10,8  
  28.12.2009  4,1    2,2    23:59    5,2    00:49  1,7    0,4    05:03    3,5    20:27  84,8    75    01:25    98    21:50  1005,0    1002    00:00    1007    15:14  0,0  2,0  12,6  
  29.12.2009  2,2    0,1    06:10    4,3    23:59  1,2    -0,9    11:51    4,0    23:59  93,7    73    11:51    98    00:46  999,8    993    20:44    1006    00:00  6,8  2,4  18,0  
  30.12.2009  7,3    2,4    23:57    10,8    13:50  6,9    2,1    23:57    10,5    13:50  97,7    94    14:29    98    00:00  992,5    990    13:28    996    23:13  4,5  1,5  10,8  
  31.12.2009  2,0    0,5    23:59    2,8    03:10  1,7    0,2    23:59    2,5    03:10  98,0    98    00:00    98    00:00  994,2    993    05:43    996    00:00  3,8  2,3  10,8  
 
  Gesamt  3,1  -14,0            13,6            0,2  -19,8            10,5            82,1  45            98            1007,8  981            1029            64,2  2,9  23,4  
 
  Mittelwert  3,1  0,4            6,0            0,2  -2,6            3,0            82,1  66,1            93,4            1007,8  1003,5            1011,6            2,1  2,9  14,3  
  Minimum  -11,0  -14,0            -6,1            -17,1  -19,8            -11,8            60,9  45,0            68,0            988,6  981,0            993,0            0,0  0,4  5,4  
  Maximum  10,4  8,0            13,6            8,2  5,9            10,5            98,0  98,0            98,0            1026,8  1025,0            1029,0            11,3  5,7  23,4  

  Heie Tage    Tmax >=30C     0  
  Sommertage    Tmax >=25C     0  
  Warme Tage    Tmax >=20C     0  
  Kalte Tage    Tmax  <10C     26  
  Frosttage    Tmin  <0C     10  
  Eistage    Tmax  <0C     1  
  Regentage > 0 mm    16  
  Regentage > 2 mm    8  
  Regentage > 10 mm    1  
  Regentage > 20 mm    0